sensor_id;sensor_type;location;lat;lon;timestamp;pressure;altitude;pressure_sealevel;temperature;humidity
34297;BME280;20564;42.902;25.336;2023-12-29T00:01:17;97767.84;;;-1.27;100.00
34297;BME280;20564;42.902;25.336;2023-12-29T00:03:45;97766.16;;;-1.28;100.00
34297;BME280;20564;42.902;25.336;2023-12-29T00:06:12;97767.09;;;-1.30;100.00
34297;BME280;20564;42.902;25.336;2023-12-29T00:08:39;97769.63;;;-1.29;100.00
34297;BME280;20564;42.902;25.336;2023-12-29T00:11:06;97765.44;;;-1.31;100.00
34297;BME280;20564;42.902;25.336;2023-12-29T00:13:33;97778.94;;;-1.25;100.00
34297;BME280;20564;42.902;25.336;2023-12-29T00:16:00;97771.44;;;-1.31;100.00
34297;BME280;20564;42.902;25.336;2023-12-29T00:18:27;97767.38;;;-1.38;100.00
34297;BME280;20564;42.902;25.336;2023-12-29T00:20:54;97763.69;;;-1.31;100.00
34297;BME280;20564;42.902;25.336;2023-12-29T00:23:33;97772.47;;;-1.36;100.00
34297;BME280;20564;42.902;25.336;2023-12-29T00:26:00;97771.69;;;-1.38;100.00
34297;BME280;20564;42.902;25.336;2023-12-29T00:28:27;97774.41;;;-1.43;100.00
34297;BME280;20564;42.902;25.336;2023-12-29T00:30:54;97777.13;;;-1.46;100.00
34297;BME280;20564;42.902;25.336;2023-12-29T00:33:28;97780.66;;;-1.49;100.00
34297;BME280;20564;42.902;25.336;2023-12-29T00:35:56;97787.56;;;-1.49;100.00
34297;BME280;20564;42.902;25.336;2023-12-29T00:38:26;97782.59;;;-1.55;100.00
34297;BME280;20564;42.902;25.336;2023-12-29T00:40:54;97773.94;;;-1.54;100.00
34297;BME280;20564;42.902;25.336;2023-12-29T00:43:20;97778.31;;;-1.56;100.00
34297;BME280;20564;42.902;25.336;2023-12-29T00:45:50;97782.69;;;-1.58;100.00
34297;BME280;20564;42.902;25.336;2023-12-29T00:48:17;97789.59;;;-1.59;100.00
34297;BME280;20564;42.902;25.336;2023-12-29T00:50:44;97787.19;;;-1.65;100.00
34297;BME280;20564;42.902;25.336;2023-12-29T00:53:12;97788.16;;;-1.67;100.00
34297;BME280;20564;42.902;25.336;2023-12-29T00:55:38;97793.22;;;-1.64;100.00
34297;BME280;20564;42.902;25.336;2023-12-29T00:58:05;97777.84;;;-1.67;100.00
34297;BME280;20564;42.902;25.336;2023-12-29T01:00:32;97776.94;;;-1.66;100.00
34297;BME280;20564;42.902;25.336;2023-12-29T01:02:59;97770.97;;;-1.68;100.00
34297;BME280;20564;42.902;25.336;2023-12-29T01:05:26;97783.19;;;-1.74;100.00
34297;BME280;20564;42.902;25.336;2023-12-29T01:07:54;97769.47;;;-1.76;100.00
34297;BME280;20564;42.902;25.336;2023-12-29T01:10:21;97772.78;;;-1.71;100.00
34297;BME280;20564;42.902;25.336;2023-12-29T01:12:48;97772.03;;;-1.74;100.00
34297;BME280;20564;42.902;25.336;2023-12-29T01:15:15;97770.22;;;-1.72;100.00
34297;BME280;20564;42.902;25.336;2023-12-29T01:17:43;97763.34;;;-1.72;100.00
34297;BME280;20564;42.902;25.336;2023-12-29T01:20:10;97763.47;;;-1.76;100.00
34297;BME280;20564;42.902;25.336;2023-12-29T01:22:37;97772.03;;;-1.74;100.00
34297;BME280;20564;42.902;25.336;2023-12-29T01:25:04;97767.72;;;-1.74;100.00
34297;BME280;20564;42.902;25.336;2023-12-29T01:27:32;97770.22;;;-1.72;100.00
34297;BME280;20564;42.902;25.336;2023-12-29T01:29:59;97772.06;;;-1.76;100.00
34297;BME280;20564;42.902;25.336;2023-12-29T01:32:26;97772.88;;;-1.74;100.00
34297;BME280;20564;42.902;25.336;2023-12-29T01:34:54;97764.22;;;-1.73;100.00
34297;BME280;20564;42.902;25.336;2023-12-29T01:37:21;97764.44;;;-1.79;100.00
34297;BME280;20564;42.902;25.336;2023-12-29T01:39:48;97767.91;;;-1.80;100.00
34297;BME280;20564;42.902;25.336;2023-12-29T01:42:17;97762.88;;;-1.83;100.00
34297;BME280;20564;42.902;25.336;2023-12-29T01:44:44;97754.31;;;-1.85;100.00
34297;BME280;20564;42.902;25.336;2023-12-29T01:47:14;97756.97;;;-1.86;100.00
34297;BME280;20564;42.902;25.336;2023-12-29T01:49:46;97752.66;;;-1.87;100.00
34297;BME280;20564;42.902;25.336;2023-12-29T01:52:18;97750.94;;;-1.87;100.00
34297;BME280;20564;42.902;25.336;2023-12-29T01:54:49;97749.16;;;-1.85;100.00
34297;BME280;20564;42.902;25.336;2023-12-29T01:57:19;97752.72;;;-1.89;100.00
34297;BME280;20564;42.902;25.336;2023-12-29T01:59:47;97751.91;;;-1.89;100.00
34297;BME280;20564;42.902;25.336;2023-12-29T02:02:16;97746.00;;;-1.93;100.00
34297;BME280;20564;42.902;25.336;2023-12-29T02:04:43;97743.44;;;-1.95;100.00
34297;BME280;20564;42.902;25.336;2023-12-29T02:07:11;97744.53;;;-2.02;100.00
34297;BME280;20564;42.902;25.336;2023-12-29T02:09:39;97753.03;;;-1.98;100.00
34297;BME280;20564;42.902;25.336;2023-12-29T02:12:06;97742.69;;;-1.98;100.00
34297;BME280;20564;42.902;25.336;2023-12-29T02:14:34;97751.28;;;-1.98;100.00
34297;BME280;20564;42.902;25.336;2023-12-29T02:17:10;97744.28;;;-1.94;100.00
34297;BME280;20564;42.902;25.336;2023-12-29T02:19:46;97736.75;;;-2.00;100.00
34297;BME280;20564;42.902;25.336;2023-12-29T02:22:14;97735.88;;;-1.99;100.00
34297;BME280;20564;42.902;25.336;2023-12-29T02:24:49;97736.66;;;-1.97;100.00
34297;BME280;20564;42.902;25.336;2023-12-29T02:27:18;97728.94;;;-1.97;100.00
34297;BME280;20564;42.902;25.336;2023-12-29T02:30:06;97737.69;;;-2.03;100.00
34297;BME280;20564;42.902;25.336;2023-12-29T02:32:42;97730.72;;;-1.99;100.00
34297;BME280;20564;42.902;25.336;2023-12-29T02:35:13;97725.72;;;-2.05;100.00
34297;BME280;20564;42.902;25.336;2023-12-29T02:37:41;97727.44;;;-2.04;100.00
34297;BME280;20564;42.902;25.336;2023-12-29T02:40:09;97720.72;;;-2.10;100.00
34297;BME280;20564;42.902;25.336;2023-12-29T02:42:36;97723.28;;;-2.08;100.00
34297;BME280;20564;42.902;25.336;2023-12-29T02:45:04;97707.19;;;-2.16;100.00
34297;BME280;20564;42.902;25.336;2023-12-29T02:47:31;97715.81;;;-2.17;100.00
34297;BME280;20564;42.902;25.336;2023-12-29T02:49:58;97725.22;;;-2.15;100.00
34297;BME280;20564;42.902;25.336;2023-12-29T02:52:25;97715.72;;;-2.14;100.00
34297;BME280;20564;42.902;25.336;2023-12-29T02:54:52;97701.28;;;-2.20;100.00
34297;BME280;20564;42.902;25.336;2023-12-29T02:57:20;97706.44;;;-2.20;100.00
34297;BME280;20564;42.902;25.336;2023-12-29T02:59:47;97712.44;;;-2.20;100.00
34297;BME280;20564;42.902;25.336;2023-12-29T03:02:17;97714.09;;;-2.17;100.00
34297;BME280;20564;42.902;25.336;2023-12-29T03:04:46;97716.72;;;-2.19;100.00
34297;BME280;20564;42.902;25.336;2023-12-29T03:07:13;97715.91;;;-2.21;100.00
34297;BME280;20564;42.902;25.336;2023-12-29T03:09:40;97710.66;;;-2.17;100.00
34297;BME280;20564;42.902;25.336;2023-12-29T03:12:07;97715.81;;;-2.17;100.00
34297;BME280;20564;42.902;25.336;2023-12-29T03:14:35;97719.31;;;-2.19;100.00
34297;BME280;20564;42.902;25.336;2023-12-29T03:17:01;97710.84;;;-2.24;100.00
34297;BME280;20564;42.902;25.336;2023-12-29T03:19:28;97705.69;;;-2.24;100.00
34297;BME280;20564;42.902;25.336;2023-12-29T03:21:55;97713.34;;;-2.21;100.00
34297;BME280;20564;42.902;25.336;2023-12-29T03:24:22;97716.75;;;-2.20;100.00
34297;BME280;20564;42.902;25.336;2023-12-29T03:26:49;97705.69;;;-2.24;100.00
34297;BME280;20564;42.902;25.336;2023-12-29T03:29:16;97716.00;;;-2.24;100.00
34297;BME280;20564;42.902;25.336;2023-12-29T03:31:43;97705.00;;;-2.29;100.00
34297;BME280;20564;42.902;25.336;2023-12-29T03:34:11;97717.66;;;-2.21;100.00
34297;BME280;20564;42.902;25.336;2023-12-29T03:36:38;97712.66;;;-2.26;100.00
34297;BME280;20564;42.902;25.336;2023-12-29T03:39:05;97716.09;;;-2.27;100.00
34297;BME280;20564;42.902;25.336;2023-12-29T03:41:35;97709.19;;;-2.25;100.00
34297;BME280;20564;42.902;25.336;2023-12-29T03:44:02;97709.25;;;-2.28;100.00
34297;BME280;20564;42.902;25.336;2023-12-29T03:46:29;97709.97;;;-2.23;100.00
34297;BME280;20564;42.902;25.336;2023-12-29T03:48:57;97703.38;;;-2.31;100.00
34297;BME280;20564;42.902;25.336;2023-12-29T03:51:24;97708.50;;;-2.30;100.00
34297;BME280;20564;42.902;25.336;2023-12-29T03:53:51;97709.56;;;-2.37;100.00
34297;BME280;20564;42.902;25.336;2023-12-29T03:56:18;97707.00;;;-2.37;100.00
34297;BME280;20564;42.902;25.336;2023-12-29T03:58:46;97700.19;;;-2.39;100.00
34297;BME280;20564;42.902;25.336;2023-12-29T04:01:14;97701.03;;;-2.39;100.00
34297;BME280;20564;42.902;25.336;2023-12-29T04:03:42;97701.13;;;-2.42;100.00
34297;BME280;20564;42.902;25.336;2023-12-29T04:06:10;97708.06;;;-2.44;100.00
34297;BME280;20564;42.902;25.336;2023-12-29T04:08:37;97714.09;;;-2.45;100.00
34297;BME280;20564;42.902;25.336;2023-12-29T04:11:05;97713.31;;;-2.47;100.00
34297;BME280;20564;42.902;25.336;2023-12-29T04:13:32;97711.66;;;-2.48;100.00
34297;BME280;20564;42.902;25.336;2023-12-29T04:15:59;97709.84;;;-2.46;100.00
34297;BME280;20564;42.902;25.336;2023-12-29T04:18:30;97708.16;;;-2.47;100.00
34297;BME280;20564;42.902;25.336;2023-12-29T04:20:57;97709.91;;;-2.48;100.00
34297;BME280;20564;42.902;25.336;2023-12-29T04:23:24;97711.53;;;-2.45;100.00
34297;BME280;20564;42.902;25.336;2023-12-29T04:25:51;97713.22;;;-2.44;100.00
34297;BME280;20564;42.902;25.336;2023-12-29T04:28:18;97706.50;;;-2.48;100.00
34297;BME280;20564;42.902;25.336;2023-12-29T04:30:45;97710.00;;;-2.51;100.00
34297;BME280;20564;42.902;25.336;2023-12-29T04:33:12;97710.00;;;-2.51;100.00
34297;BME280;20564;42.902;25.336;2023-12-29T04:35:39;97708.34;;;-2.53;100.00
34297;BME280;20564;42.902;25.336;2023-12-29T04:38:06;97718.66;;;-2.53;100.00
34297;BME280;20564;42.902;25.336;2023-12-29T04:40:34;97725.53;;;-2.52;100.00
34297;BME280;20564;42.902;25.336;2023-12-29T04:43:00;97717.72;;;-2.51;100.00
34297;BME280;20564;42.902;25.336;2023-12-29T04:45:27;97723.03;;;-2.55;100.00
34297;BME280;20564;42.902;25.336;2023-12-29T04:47:55;97719.50;;;-2.53;100.00
34297;BME280;20564;42.902;25.336;2023-12-29T04:50:23;97720.53;;;-2.58;100.00
34297;BME280;20564;42.902;25.336;2023-12-29T04:52:50;97721.38;;;-2.58;100.00
34297;BME280;20564;42.902;25.336;2023-12-29T04:55:17;97728.28;;;-2.58;100.00
34297;BME280;20564;42.902;25.336;2023-12-29T04:57:44;97732.34;;;-2.51;100.00
34297;BME280;20564;42.902;25.336;2023-12-29T05:00:12;97734.22;;;-2.56;100.00
34297;BME280;20564;42.902;25.336;2023-12-29T05:02:39;97740.31;;;-2.59;100.00
34297;BME280;20564;42.902;25.336;2023-12-29T05:05:06;97741.25;;;-2.61;100.00
34297;BME280;20564;42.902;25.336;2023-12-29T05:07:33;97746.41;;;-2.61;100.00
34297;BME280;20564;42.902;25.336;2023-12-29T05:10:00;97743.13;;;-2.67;100.00
34297;BME280;20564;42.902;25.336;2023-12-29T05:12:27;97749.88;;;-2.62;100.00
34297;BME280;20564;42.902;25.336;2023-12-29T05:14:55;97742.16;;;-2.64;100.00
34297;BME280;20564;42.902;25.336;2023-12-29T05:17:22;97744.97;;;-2.72;100.00
34297;BME280;20564;42.902;25.336;2023-12-29T05:19:49;97743.22;;;-2.70;100.00
34297;BME280;20564;42.902;25.336;2023-12-29T05:22:16;97746.56;;;-2.68;100.00
34297;BME280;20564;42.902;25.336;2023-12-29T05:24:44;97747.22;;;-2.61;100.00
34297;BME280;20564;42.902;25.336;2023-12-29T05:27:12;97753.31;;;-2.63;100.00
34297;BME280;20564;42.902;25.336;2023-12-29T05:29:42;97757.78;;;-2.69;100.00
34297;BME280;20564;42.902;25.336;2023-12-29T05:32:08;97760.94;;;-2.59;100.00
34297;BME280;20564;42.902;25.336;2023-12-29T05:34:35;97775.59;;;-2.61;100.00
34297;BME280;20564;42.902;25.336;2023-12-29T05:37:03;97768.88;;;-2.67;100.00
34297;BME280;20564;42.902;25.336;2023-12-29T05:39:30;97763.75;;;-2.67;100.00
34297;BME280;20564;42.902;25.336;2023-12-29T05:41:57;97770.72;;;-2.70;100.00
34297;BME280;20564;42.902;25.336;2023-12-29T05:44:24;97765.59;;;-2.72;100.00
34297;BME280;20564;42.902;25.336;2023-12-29T05:46:51;97771.63;;;-2.73;100.00
34297;BME280;20564;42.902;25.336;2023-12-29T05:49:18;97777.69;;;-2.74;100.00
34297;BME280;20564;42.902;25.336;2023-12-29T05:51:45;97776.09;;;-2.78;100.00
34297;BME280;20564;42.902;25.336;2023-12-29T05:54:15;97776.09;;;-2.78;100.00
34297;BME280;20564;42.902;25.336;2023-12-29T05:56:43;97773.38;;;-2.73;100.00
34297;BME280;20564;42.902;25.336;2023-12-29T05:59:10;97771.78;;;-2.77;100.00
34297;BME280;20564;42.902;25.336;2023-12-29T06:01:37;97774.28;;;-2.76;100.00
34297;BME280;20564;42.902;25.336;2023-12-29T06:04:04;97771.72;;;-2.76;100.00
34297;BME280;20564;42.902;25.336;2023-12-29T06:06:31;97769.16;;;-2.76;100.00
34297;BME280;20564;42.902;25.336;2023-12-29T06:08:58;97779.59;;;-2.80;100.00
34297;BME280;20564;42.902;25.336;2023-12-29T06:11:25;97776.69;;;-2.70;100.00
34297;BME280;20564;42.902;25.336;2023-12-29T06:13:52;97771.63;;;-2.73;100.00
34297;BME280;20564;42.902;25.336;2023-12-29T06:16:22;97780.25;;;-2.74;100.00
34297;BME280;20564;42.902;25.336;2023-12-29T06:18:49;97774.22;;;-2.73;100.00
34297;BME280;20564;42.902;25.336;2023-12-29T06:21:17;97771.63;;;-2.73;100.00
34297;BME280;20564;42.902;25.336;2023-12-29T06:23:44;97765.66;;;-2.75;100.00
34297;BME280;20564;42.902;25.336;2023-12-29T06:26:18;97776.69;;;-2.70;100.00
34297;BME280;20564;42.902;25.336;2023-12-29T06:28:46;97772.41;;;-2.71;100.00
34297;BME280;20564;42.902;25.336;2023-12-29T06:31:14;97768.97;;;-2.70;100.00
34297;BME280;20564;42.902;25.336;2023-12-29T06:33:43;97765.56;;;-2.70;100.00
34297;BME280;20564;42.902;25.336;2023-12-29T06:36:12;97775.81;;;-2.69;100.00
34297;BME280;20564;42.902;25.336;2023-12-29T06:38:38;97776.47;;;-2.62;100.00
34297;BME280;20564;42.902;25.336;2023-12-29T06:41:05;97768.59;;;-2.57;100.00
34297;BME280;20564;42.902;25.336;2023-12-29T06:43:32;97771.91;;;-2.52;100.00
34297;BME280;20564;42.902;25.336;2023-12-29T06:46:00;97765.03;;;-2.53;100.00
34297;BME280;20564;42.902;25.336;2023-12-29T06:48:30;97778.66;;;-2.48;100.00
34297;BME280;20564;42.902;25.336;2023-12-29T06:50:57;97778.53;;;-2.45;100.00
34297;BME280;20564;42.902;25.336;2023-12-29T06:53:24;97769.84;;;-2.41;100.00
34297;BME280;20564;42.902;25.336;2023-12-29T06:55:51;97779.94;;;-2.35;100.00
34297;BME280;20564;42.902;25.336;2023-12-29T06:58:18;97771.22;;;-2.31;100.00
34297;BME280;20564;42.902;25.336;2023-12-29T07:00:45;97766.66;;;-2.21;100.00
34297;BME280;20564;42.902;25.336;2023-12-29T07:03:13;97785.97;;;-2.06;100.00
34297;BME280;20564;42.902;25.336;2023-12-29T07:05:41;97789.44;;;-2.07;100.00
34297;BME280;20564;42.902;25.336;2023-12-29T07:08:08;97795.88;;;-1.94;100.00
34297;BME280;20564;42.902;25.336;2023-12-29T07:10:35;97787.25;;;-1.93;100.00
34297;BME280;20564;42.902;25.336;2023-12-29T07:13:02;97786.28;;;-1.89;100.00
34297;BME280;20564;42.902;25.336;2023-12-29T07:15:29;97786.97;;;-1.84;100.00
34297;BME280;20564;42.902;25.336;2023-12-29T07:17:55;97785.03;;;-1.77;100.00
34297;BME280;20564;42.902;25.336;2023-12-29T07:20:23;97786.44;;;-1.68;100.00
34297;BME280;20564;42.902;25.336;2023-12-29T07:22:53;97781.00;;;-1.59;100.00
34297;BME280;20564;42.902;25.336;2023-12-29T07:25:20;97786.72;;;-1.50;100.00
34297;BME280;20564;42.902;25.336;2023-12-29T07:27:47;97784.53;;;-1.37;100.00
34297;BME280;20564;42.902;25.336;2023-12-29T07:30:14;97780.94;;;-1.31;100.00
34297;BME280;20564;42.902;25.336;2023-12-29T07:32:41;97784.72;;;-1.16;100.00
34297;BME280;20564;42.902;25.336;2023-12-29T07:35:08;97780.06;;;-1.07;100.00
34297;BME280;20564;42.902;25.336;2023-12-29T07:37:35;97791.81;;;-0.98;100.00
34297;BME280;20564;42.902;25.336;2023-12-29T07:40:03;97789.78;;;-0.90;100.00
34297;BME280;20564;42.902;25.336;2023-12-29T07:42:33;97798.56;;;-0.70;100.00
34297;BME280;20564;42.902;25.336;2023-12-29T07:45:00;97792.06;;;-0.57;100.00
34297;BME280;20564;42.902;25.336;2023-12-29T07:47:27;97790.81;;;-0.47;100.00
34297;BME280;20564;42.902;25.336;2023-12-29T07:49:54;97788.47;;;-0.31;100.00
34297;BME280;20564;42.902;25.336;2023-12-29T07:52:20;97786.13;;;-0.15;100.00
34297;BME280;20564;42.902;25.336;2023-12-29T07:54:47;97791.44;;;0.04;100.00
34297;BME280;20564;42.902;25.336;2023-12-29T07:57:15;97784.84;;;0.18;100.00
34297;BME280;20564;42.902;25.336;2023-12-29T07:59:42;97783.50;;;0.30;100.00
34297;BME280;20564;42.902;25.336;2023-12-29T08:02:09;97791.66;;;0.41;100.00
34297;BME280;20564;42.902;25.336;2023-12-29T08:04:36;97789.25;;;0.57;100.00
34297;BME280;20564;42.902;25.336;2023-12-29T08:07:04;97800.59;;;0.75;100.00
34297;BME280;20564;42.902;25.336;2023-12-29T08:09:31;97788.00;;;0.88;100.00
34297;BME280;20564;42.902;25.336;2023-12-29T08:11:58;97795.72;;;1.08;100.00
34297;BME280;20564;42.902;25.336;2023-12-29T08:14:25;97799.53;;;1.20;100.00
34297;BME280;20564;42.902;25.336;2023-12-29T08:16:51;97795.28;;;1.38;100.00
34297;BME280;20564;42.902;25.336;2023-12-29T08:19:19;97793.84;;;1.51;100.00
34297;BME280;20564;42.902;25.336;2023-12-29T08:21:45;97789.75;;;1.64;100.00
34297;BME280;20564;42.902;25.336;2023-12-29T08:24:14;97784.63;;;1.82;100.00
34297;BME280;20564;42.902;25.336;2023-12-29T08:26:46;97787.84;;;2.06;100.00
34297;BME280;20564;42.902;25.336;2023-12-29T08:29:13;97788.78;;;2.22;100.00
34297;BME280;20564;42.902;25.336;2023-12-29T08:31:42;97786.22;;;2.39;100.00
34297;BME280;20564;42.902;25.336;2023-12-29T08:34:10;97778.50;;;2.55;100.00
34297;BME280;20564;42.902;25.336;2023-12-29T08:36:37;97781.69;;;2.78;100.00
34297;BME280;20564;42.902;25.336;2023-12-29T08:39:03;97779.22;;;2.92;100.00
34297;BME280;20564;42.902;25.336;2023-12-29T08:41:30;97781.81;;;3.09;100.00
34297;BME280;20564;42.902;25.336;2023-12-29T08:43:57;97780.94;;;3.26;100.00
34297;BME280;20564;42.902;25.336;2023-12-29T08:46:25;97770.56;;;3.42;100.00
34297;BME280;20564;42.902;25.336;2023-12-29T08:48:52;97770.41;;;3.61;100.00
34297;BME280;20564;42.902;25.336;2023-12-29T08:51:20;97770.25;;;3.80;100.00
34297;BME280;20564;42.902;25.336;2023-12-29T08:53:47;97766.81;;;3.95;100.00
34297;BME280;20564;42.902;25.336;2023-12-29T08:56:20;97760.66;;;4.12;100.00
34297;BME280;20564;42.902;25.336;2023-12-29T09:02:20;97764.25;;;4.55;100.00
34297;BME280;20564;42.902;25.336;2023-12-29T09:04:51;97769.16;;;4.76;100.00
34297;BME280;20564;42.902;25.336;2023-12-29T09:08:30;97756.25;;;5.03;100.00
34297;BME280;20564;42.902;25.336;2023-12-29T09:15:36;97735.44;;;5.44;100.00
34297;BME280;20564;42.902;25.336;2023-12-29T09:18:03;97747.75;;;5.71;100.00
34297;BME280;20564;42.902;25.336;2023-12-29T09:20:30;97743.13;;;5.89;100.00
34297;BME280;20564;42.902;25.336;2023-12-29T09:22:57;97750.56;;;6.09;100.00
34297;BME280;20564;42.902;25.336;2023-12-29T09:25:36;97758.25;;;6.25;100.00
34297;BME280;20564;42.902;25.336;2023-12-29T09:28:25;97732.25;;;6.36;100.00
34297;BME280;20564;42.902;25.336;2023-12-29T09:30:52;97743.94;;;6.70;98.21
34297;BME280;20564;42.902;25.336;2023-12-29T09:33:19;97746.91;;;6.91;100.00
34297;BME280;20564;42.902;25.336;2023-12-29T09:35:46;97742.28;;;7.08;100.00
34297;BME280;20564;42.902;25.336;2023-12-29T09:38:13;97743.13;;;7.21;100.00
34297;BME280;20564;42.902;25.336;2023-12-29T09:40:41;97737.94;;;7.45;88.69
34297;BME280;20564;42.902;25.336;2023-12-29T09:43:10;97738.03;;;7.69;89.86
34297;BME280;20564;42.902;25.336;2023-12-29T09:45:37;97735.19;;;7.96;85.77
34297;BME280;20564;42.902;25.336;2023-12-29T09:48:07;97737.44;;;8.13;87.51
34297;BME280;20564;42.902;25.336;2023-12-29T09:50:36;97731.28;;;8.38;83.89
34297;BME280;20564;42.902;25.336;2023-12-29T09:53:04;97719.53;;;8.66;76.56
34297;BME280;20564;42.902;25.336;2023-12-29T09:55:30;97711.84;;;8.99;76.32
34297;BME280;20564;42.902;25.336;2023-12-29T09:57:58;97721.91;;;9.27;75.43
34297;BME280;20564;42.902;25.336;2023-12-29T10:00:27;97708.31;;;9.56;72.47
34297;BME280;20564;42.902;25.336;2023-12-29T10:02:56;97705.63;;;9.78;69.45
34297;BME280;20564;42.902;25.336;2023-12-29T10:05:24;97697.34;;;9.94;66.10
34297;BME280;20564;42.902;25.336;2023-12-29T10:07:52;97704.88;;;9.99;67.08
34297;BME280;20564;42.902;25.336;2023-12-29T10:10:20;97696.97;;;10.10;64.26
34297;BME280;20564;42.902;25.336;2023-12-29T10:12:51;97678.00;;;10.27;63.07
34297;BME280;20564;42.902;25.336;2023-12-29T10:15:32;97677.25;;;10.36;62.95
34297;BME280;20564;42.902;25.336;2023-12-29T10:24:05;97673.69;;;10.79;61.10
34297;BME280;20564;42.902;25.336;2023-12-29T10:26:35;97667.38;;;10.92;61.77
34297;BME280;20564;42.902;25.336;2023-12-29T10:29:03;97665.16;;;10.97;60.93
34297;BME280;20564;42.902;25.336;2023-12-29T10:31:30;97667.75;;;11.08;60.21
34297;BME280;20564;42.902;25.336;2023-12-29T10:34:19;97665.97;;;11.18;60.40
34297;BME280;20564;42.902;25.336;2023-12-29T10:36:48;97661.41;;;11.20;59.11
34297;BME280;20564;42.902;25.336;2023-12-29T10:39:17;97662.53;;;11.27;60.65
34297;BME280;20564;42.902;25.336;2023-12-29T10:41:43;97657.03;;;11.40;59.28
34297;BME280;20564;42.902;25.336;2023-12-29T10:44:11;97650.25;;;11.47;59.98
34297;BME280;20564;42.902;25.336;2023-12-29T10:46:38;97647.66;;;11.57;59.85
34297;BME280;20564;42.902;25.336;2023-12-29T10:51:36;97646.72;;;11.77;60.87
34297;BME280;20564;42.902;25.336;2023-12-29T10:54:04;97639.41;;;11.91;59.65
34297;BME280;20564;42.902;25.336;2023-12-29T10:56:32;97640.78;;;11.95;59.36
34297;BME280;20564;42.902;25.336;2023-12-29T11:01:26;97642.75;;;12.12;58.40
34297;BME280;20564;42.902;25.336;2023-12-29T11:04:11;97636.22;;;12.16;57.81
34297;BME280;20564;42.902;25.336;2023-12-29T11:06:41;97623.31;;;12.23;58.16
34297;BME280;20564;42.902;25.336;2023-12-29T11:09:11;97620.53;;;12.24;57.68
34297;BME280;20564;42.902;25.336;2023-12-29T11:11:38;97624.28;;;12.31;57.66
34297;BME280;20564;42.902;25.336;2023-12-29T11:14:05;97611.91;;;12.42;56.57
34297;BME280;20564;42.902;25.336;2023-12-29T11:16:39;97613.16;;;12.47;57.10
34297;BME280;20564;42.902;25.336;2023-12-29T11:19:10;97608.53;;;12.59;56.79
34297;BME280;20564;42.902;25.336;2023-12-29T11:21:40;97604.34;;;12.66;57.61
34297;BME280;20564;42.902;25.336;2023-12-29T11:24:09;97602.09;;;12.71;56.55
34297;BME280;20564;42.902;25.336;2023-12-29T11:26:39;97592.91;;;12.75;56.51
34297;BME280;20564;42.902;25.336;2023-12-29T11:29:07;97587.34;;;12.78;55.50
34297;BME280;20564;42.902;25.336;2023-12-29T11:31:35;97587.75;;;12.84;55.60
34297;BME280;20564;42.902;25.336;2023-12-29T11:34:20;97590.63;;;12.90;55.70
34297;BME280;20564;42.902;25.336;2023-12-29T11:36:50;97589.25;;;12.96;54.82
34297;BME280;20564;42.902;25.336;2023-12-29T11:39:30;97586.03;;;13.02;54.61
34297;BME280;20564;42.902;25.336;2023-12-29T11:42:21;97575.84;;;13.07;54.78
34297;BME280;20564;42.902;25.336;2023-12-29T11:44:49;97576.91;;;13.14;54.18
34297;BME280;20564;42.902;25.336;2023-12-29T11:47:37;97570.81;;;13.14;55.13
34297;BME280;20564;42.902;25.336;2023-12-29T11:50:05;97572.84;;;13.20;54.51
34297;BME280;20564;42.902;25.336;2023-12-29T11:52:41;97570.50;;;13.17;53.97
34297;BME280;20564;42.902;25.336;2023-12-29T11:57:35;97563.69;;;13.24;54.27
34297;BME280;20564;42.902;25.336;2023-12-29T12:00:02;97563.53;;;13.25;53.07
34297;BME280;20564;42.902;25.336;2023-12-29T12:02:33;97567.72;;;13.18;53.96
34297;BME280;20564;42.902;25.336;2023-12-29T12:05:00;97556.84;;;13.21;52.73
34297;BME280;20564;42.902;25.336;2023-12-29T12:12:47;97561.06;;;13.14;52.84
34297;BME280;20564;42.902;25.336;2023-12-29T12:18:03;97554.19;;;13.21;52.71
34297;BME280;20564;42.902;25.336;2023-12-29T12:20:33;97556.59;;;13.24;52.95
34297;BME280;20564;42.902;25.336;2023-12-29T12:23:05;97552.13;;;13.25;53.23
34297;BME280;20564;42.902;25.336;2023-12-29T12:25:32;97553.22;;;13.22;53.19
34297;BME280;20564;42.902;25.336;2023-12-29T12:28:09;97553.22;;;13.22;52.08
34297;BME280;20564;42.902;25.336;2023-12-29T12:30:36;97548.75;;;13.23;52.24
34297;BME280;20564;42.902;25.336;2023-12-29T12:33:04;97538.63;;;13.18;52.55
34297;BME280;20564;42.902;25.336;2023-12-29T12:35:32;97541.69;;;13.23;52.69
34297;BME280;20564;42.902;25.336;2023-12-29T12:38:15;97549.63;;;13.23;52.06
34297;BME280;20564;42.902;25.336;2023-12-29T12:40:48;97539.03;;;13.23;52.88
34297;BME280;20564;42.902;25.336;2023-12-29T12:43:16;97541.81;;;13.22;52.87
34297;BME280;20564;42.902;25.336;2023-12-29T12:45:53;97541.81;;;13.22;52.67
34297;BME280;20564;42.902;25.336;2023-12-29T12:48:44;97541.28;;;13.18;53.08
34297;BME280;20564;42.902;25.336;2023-12-29T12:51:13;97541.56;;;13.15;53.16
34297;BME280;20564;42.902;25.336;2023-12-29T12:53:43;97551.19;;;13.16;53.65
34297;BME280;20564;42.902;25.336;2023-12-29T12:56:15;97547.00;;;13.14;53.77
34297;BME280;20564;42.902;25.336;2023-12-29T12:58:42;97543.53;;;13.13;53.24
34297;BME280;20564;42.902;25.336;2023-12-29T13:01:10;97553.94;;;13.15;52.93
34297;BME280;20564;42.902;25.336;2023-12-29T13:03:38;97545.47;;;13.11;53.40
34297;BME280;20564;42.902;25.336;2023-12-29T13:06:06;97539.13;;;13.04;54.08
34297;BME280;20564;42.902;25.336;2023-12-29T13:08:36;97540.56;;;12.98;54.64
34297;BME280;20564;42.902;25.336;2023-12-29T13:11:09;97544.75;;;12.91;56.28
34297;BME280;20564;42.902;25.336;2023-12-29T13:13:40;97539.22;;;12.85;55.26
34297;BME280;20564;42.902;25.336;2023-12-29T13:16:07;97547.88;;;12.77;56.73
34297;BME280;20564;42.902;25.336;2023-12-29T13:18:34;97547.81;;;12.59;57.00
34297;BME280;20564;42.902;25.336;2023-12-29T13:21:02;97547.38;;;12.54;56.96
34297;BME280;20564;42.902;25.336;2023-12-29T13:23:29;97552.59;;;12.36;57.97